sensor_id;sensor_type;location;lat;lon;timestamp;temperature;humidity
12578;DHT22;6354;51.026;8.968;2022-10-31T00:00:49;11.80;99.90
12578;DHT22;6354;51.026;8.968;2022-10-31T00:03:17;11.80;99.90
12578;DHT22;6354;51.026;8.968;2022-10-31T00:05:47;11.80;99.90
12578;DHT22;6354;51.026;8.968;2022-10-31T00:08:16;11.80;99.90
12578;DHT22;6354;51.026;8.968;2022-10-31T00:10:45;11.80;99.90
12578;DHT22;6354;51.026;8.968;2022-10-31T00:13:14;11.80;99.90
12578;DHT22;6354;51.026;8.968;2022-10-31T00:15:44;11.70;99.90
12578;DHT22;6354;51.026;8.968;2022-10-31T00:18:12;11.60;99.90
12578;DHT22;6354;51.026;8.968;2022-10-31T00:20:40;11.60;99.90
12578;DHT22;6354;51.026;8.968;2022-10-31T00:23:09;11.60;99.90
12578;DHT22;6354;51.026;8.968;2022-10-31T00:25:39;11.50;99.90
12578;DHT22;6354;51.026;8.968;2022-10-31T00:28:09;11.50;99.90
12578;DHT22;6354;51.026;8.968;2022-10-31T00:30:38;11.40;99.90
12578;DHT22;6354;51.026;8.968;2022-10-31T00:33:07;11.40;99.90
12578;DHT22;6354;51.026;8.968;2022-10-31T00:35:35;11.40;99.90
12578;DHT22;6354;51.026;8.968;2022-10-31T00:38:04;11.40;99.90
12578;DHT22;6354;51.026;8.968;2022-10-31T00:40:32;11.40;99.90
12578;DHT22;6354;51.026;8.968;2022-10-31T00:43:00;11.40;99.90
12578;DHT22;6354;51.026;8.968;2022-10-31T00:45:29;11.50;99.90
12578;DHT22;6354;51.026;8.968;2022-10-31T00:47:57;11.40;99.90
12578;DHT22;6354;51.026;8.968;2022-10-31T00:50:27;11.40;99.90
12578;DHT22;6354;51.026;8.968;2022-10-31T00:52:55;11.30;99.90
12578;DHT22;6354;51.026;8.968;2022-10-31T00:55:23;11.30;99.90
12578;DHT22;6354;51.026;8.968;2022-10-31T00:57:51;11.30;99.90
12578;DHT22;6354;51.026;8.968;2022-10-31T01:00:19;11.20;99.90
12578;DHT22;6354;51.026;8.968;2022-10-31T01:02:48;11.20;99.90
12578;DHT22;6354;51.026;8.968;2022-10-31T01:05:16;11.20;99.90
12578;DHT22;6354;51.026;8.968;2022-10-31T01:07:46;11.20;99.90
12578;DHT22;6354;51.026;8.968;2022-10-31T01:10:14;11.20;99.90
12578;DHT22;6354;51.026;8.968;2022-10-31T01:12:44;11.20;99.90
12578;DHT22;6354;51.026;8.968;2022-10-31T01:15:14;11.20;99.90
12578;DHT22;6354;51.026;8.968;2022-10-31T01:17:43;11.20;99.90
12578;DHT22;6354;51.026;8.968;2022-10-31T01:20:13;11.20;99.90
12578;DHT22;6354;51.026;8.968;2022-10-31T01:22:41;11.20;99.90
12578;DHT22;6354;51.026;8.968;2022-10-31T01:25:11;11.20;99.90
12578;DHT22;6354;51.026;8.968;2022-10-31T01:27:39;11.20;99.90
12578;DHT22;6354;51.026;8.968;2022-10-31T01:30:08;11.10;99.90
12578;DHT22;6354;51.026;8.968;2022-10-31T01:32:36;11.10;99.90
12578;DHT22;6354;51.026;8.968;2022-10-31T01:35:05;11.10;99.90
12578;DHT22;6354;51.026;8.968;2022-10-31T01:37:33;11.10;99.90
12578;DHT22;6354;51.026;8.968;2022-10-31T01:40:01;11.10;99.90
12578;DHT22;6354;51.026;8.968;2022-10-31T01:42:30;11.10;99.90
12578;DHT22;6354;51.026;8.968;2022-10-31T01:45:01;11.20;99.90
12578;DHT22;6354;51.026;8.968;2022-10-31T01:47:34;11.20;99.90
12578;DHT22;6354;51.026;8.968;2022-10-31T01:50:09;11.20;99.90
12578;DHT22;6354;51.026;8.968;2022-10-31T01:52:41;11.20;99.90
12578;DHT22;6354;51.026;8.968;2022-10-31T01:55:13;11.20;99.90
12578;DHT22;6354;51.026;8.968;2022-10-31T01:57:47;11.20;99.90
12578;DHT22;6354;51.026;8.968;2022-10-31T02:00:16;11.20;99.90
12578;DHT22;6354;51.026;8.968;2022-10-31T02:02:45;11.30;99.90
12578;DHT22;6354;51.026;8.968;2022-10-31T02:05:16;11.30;99.90
12578;DHT22;6354;51.026;8.968;2022-10-31T02:07:50;11.20;99.90
12578;DHT22;6354;51.026;8.968;2022-10-31T02:10:21;11.30;99.90
12578;DHT22;6354;51.026;8.968;2022-10-31T02:12:53;11.20;99.90
12578;DHT22;6354;51.026;8.968;2022-10-31T02:15:23;11.20;99.90
12578;DHT22;6354;51.026;8.968;2022-10-31T02:17:51;11.20;99.90
12578;DHT22;6354;51.026;8.968;2022-10-31T02:20:21;11.20;99.90
12578;DHT22;6354;51.026;8.968;2022-10-31T02:23:18;11.20;99.90
12578;DHT22;6354;51.026;8.968;2022-10-31T02:28:58;11.10;99.90
12578;DHT22;6354;51.026;8.968;2022-10-31T02:31:37;11.00;99.90
12578;DHT22;6354;51.026;8.968;2022-10-31T02:34:16;11.00;99.90
12578;DHT22;6354;51.026;8.968;2022-10-31T02:36:51;11.00;99.90
12578;DHT22;6354;51.026;8.968;2022-10-31T02:39:24;10.90;99.90
12578;DHT22;6354;51.026;8.968;2022-10-31T02:42:02;10.90;99.90
12578;DHT22;6354;51.026;8.968;2022-10-31T02:44:36;10.90;99.90
12578;DHT22;6354;51.026;8.968;2022-10-31T02:47:11;10.90;99.90
12578;DHT22;6354;51.026;8.968;2022-10-31T02:49:45;10.80;99.90
12578;DHT22;6354;51.026;8.968;2022-10-31T02:52:16;10.90;99.90
12578;DHT22;6354;51.026;8.968;2022-10-31T02:54:46;10.90;99.90
12578;DHT22;6354;51.026;8.968;2022-10-31T02:57:15;10.90;99.90
12578;DHT22;6354;51.026;8.968;2022-10-31T02:59:47;10.90;99.90
12578;DHT22;6354;51.026;8.968;2022-10-31T03:02:43;10.90;99.90
12578;DHT22;6354;51.026;8.968;2022-10-31T03:05:41;10.90;99.90
12578;DHT22;6354;51.026;8.968;2022-10-31T03:08:18;10.90;99.90
12578;DHT22;6354;51.026;8.968;2022-10-31T03:10:53;10.80;99.90
12578;DHT22;6354;51.026;8.968;2022-10-31T03:13:29;10.90;99.90
12578;DHT22;6354;51.026;8.968;2022-10-31T03:16:06;10.90;99.90
12578;DHT22;6354;51.026;8.968;2022-10-31T03:18:40;10.80;99.90
12578;DHT22;6354;51.026;8.968;2022-10-31T03:21:13;10.80;99.90
12578;DHT22;6354;51.026;8.968;2022-10-31T03:23:44;10.80;99.90
12578;DHT22;6354;51.026;8.968;2022-10-31T03:26:14;10.70;99.90
12578;DHT22;6354;51.026;8.968;2022-10-31T03:28:46;10.70;99.90
12578;DHT22;6354;51.026;8.968;2022-10-31T03:31:19;10.70;99.90
12578;DHT22;6354;51.026;8.968;2022-10-31T03:33:53;10.70;99.90
12578;DHT22;6354;51.026;8.968;2022-10-31T03:36:22;10.70;99.90
12578;DHT22;6354;51.026;8.968;2022-10-31T03:38:51;10.60;99.90
12578;DHT22;6354;51.026;8.968;2022-10-31T03:41:22;10.60;99.90
12578;DHT22;6354;51.026;8.968;2022-10-31T03:43:55;10.60;99.90
12578;DHT22;6354;51.026;8.968;2022-10-31T03:46:25;10.60;99.90
12578;DHT22;6354;51.026;8.968;2022-10-31T03:48:55;10.60;99.90
12578;DHT22;6354;51.026;8.968;2022-10-31T03:51:27;10.60;99.90
12578;DHT22;6354;51.026;8.968;2022-10-31T03:54:02;10.60;99.90
12578;DHT22;6354;51.026;8.968;2022-10-31T03:56:36;10.60;99.90
12578;DHT22;6354;51.026;8.968;2022-10-31T03:59:08;10.60;99.90
12578;DHT22;6354;51.026;8.968;2022-10-31T04:01:39;10.50;99.90
12578;DHT22;6354;51.026;8.968;2022-10-31T04:04:11;10.50;99.90
12578;DHT22;6354;51.026;8.968;2022-10-31T04:06:40;10.50;99.90
12578;DHT22;6354;51.026;8.968;2022-10-31T04:09:10;10.50;99.90
12578;DHT22;6354;51.026;8.968;2022-10-31T04:11:44;10.50;99.90
12578;DHT22;6354;51.026;8.968;2022-10-31T04:14:13;10.40;99.90
12578;DHT22;6354;51.026;8.968;2022-10-31T04:16:42;10.40;99.90
12578;DHT22;6354;51.026;8.968;2022-10-31T04:19:13;10.40;99.90
12578;DHT22;6354;51.026;8.968;2022-10-31T04:21:42;10.40;99.90
12578;DHT22;6354;51.026;8.968;2022-10-31T04:24:11;10.40;99.90
12578;DHT22;6354;51.026;8.968;2022-10-31T04:26:39;10.40;99.90
12578;DHT22;6354;51.026;8.968;2022-10-31T04:29:07;10.40;99.90
12578;DHT22;6354;51.026;8.968;2022-10-31T04:31:35;10.30;99.90
12578;DHT22;6354;51.026;8.968;2022-10-31T04:34:03;10.40;99.90
12578;DHT22;6354;51.026;8.968;2022-10-31T04:36:32;10.40;99.90
12578;DHT22;6354;51.026;8.968;2022-10-31T04:39:01;10.40;99.90
12578;DHT22;6354;51.026;8.968;2022-10-31T04:41:30;10.40;99.90
12578;DHT22;6354;51.026;8.968;2022-10-31T04:43:58;10.40;99.90
12578;DHT22;6354;51.026;8.968;2022-10-31T04:46:26;10.40;99.90
12578;DHT22;6354;51.026;8.968;2022-10-31T04:48:54;10.30;99.90
12578;DHT22;6354;51.026;8.968;2022-10-31T04:51:23;10.30;99.90
12578;DHT22;6354;51.026;8.968;2022-10-31T04:53:52;10.20;99.90
12578;DHT22;6354;51.026;8.968;2022-10-31T04:56:20;10.20;99.90
12578;DHT22;6354;51.026;8.968;2022-10-31T04:58:48;10.30;99.90
12578;DHT22;6354;51.026;8.968;2022-10-31T05:01:16;10.20;99.90
12578;DHT22;6354;51.026;8.968;2022-10-31T05:03:45;10.20;99.90
12578;DHT22;6354;51.026;8.968;2022-10-31T05:06:13;10.10;99.90
12578;DHT22;6354;51.026;8.968;2022-10-31T05:08:43;10.10;99.90
12578;DHT22;6354;51.026;8.968;2022-10-31T05:11:12;10.10;99.90
12578;DHT22;6354;51.026;8.968;2022-10-31T05:13:40;10.00;99.90
12578;DHT22;6354;51.026;8.968;2022-10-31T05:16:08;10.00;99.90
12578;DHT22;6354;51.026;8.968;2022-10-31T05:18:37;10.00;99.90
12578;DHT22;6354;51.026;8.968;2022-10-31T05:21:05;10.00;99.90
12578;DHT22;6354;51.026;8.968;2022-10-31T05:23:33;9.90;99.90
12578;DHT22;6354;51.026;8.968;2022-10-31T05:26:01;9.80;99.90
12578;DHT22;6354;51.026;8.968;2022-10-31T05:28:30;9.80;99.90
12578;DHT22;6354;51.026;8.968;2022-10-31T05:30:58;9.90;99.90
12578;DHT22;6354;51.026;8.968;2022-10-31T05:33:27;9.80;99.90
12578;DHT22;6354;51.026;8.968;2022-10-31T05:35:55;9.80;99.90
12578;DHT22;6354;51.026;8.968;2022-10-31T05:38:23;9.70;99.90
12578;DHT22;6354;51.026;8.968;2022-10-31T05:40:54;9.80;99.90
12578;DHT22;6354;51.026;8.968;2022-10-31T05:43:24;9.80;99.90
12578;DHT22;6354;51.026;8.968;2022-10-31T05:45:54;9.80;99.90
12578;DHT22;6354;51.026;8.968;2022-10-31T05:48:22;9.80;99.90
12578;DHT22;6354;51.026;8.968;2022-10-31T05:50:50;9.70;99.90
12578;DHT22;6354;51.026;8.968;2022-10-31T05:53:18;9.70;99.90
12578;DHT22;6354;51.026;8.968;2022-10-31T05:55:47;9.70;99.90
12578;DHT22;6354;51.026;8.968;2022-10-31T05:58:15;9.70;99.90
12578;DHT22;6354;51.026;8.968;2022-10-31T06:00:43;9.60;99.90
12578;DHT22;6354;51.026;8.968;2022-10-31T06:03:12;9.60;99.90
12578;DHT22;6354;51.026;8.968;2022-10-31T06:05:40;9.60;99.90
12578;DHT22;6354;51.026;8.968;2022-10-31T06:08:08;9.70;99.90
12578;DHT22;6354;51.026;8.968;2022-10-31T06:10:37;9.60;99.90
12578;DHT22;6354;51.026;8.968;2022-10-31T06:13:05;9.70;99.90
12578;DHT22;6354;51.026;8.968;2022-10-31T06:15:33;9.70;99.90
12578;DHT22;6354;51.026;8.968;2022-10-31T06:18:03;9.80;99.90
12578;DHT22;6354;51.026;8.968;2022-10-31T06:20:33;9.70;99.90
12578;DHT22;6354;51.026;8.968;2022-10-31T06:23:02;9.70;99.90
12578;DHT22;6354;51.026;8.968;2022-10-31T06:25:31;9.70;99.90
12578;DHT22;6354;51.026;8.968;2022-10-31T06:27:59;9.60;99.90
12578;DHT22;6354;51.026;8.968;2022-10-31T06:30:27;9.60;99.90
12578;DHT22;6354;51.026;8.968;2022-10-31T06:33:02;9.60;99.90
12578;DHT22;6354;51.026;8.968;2022-10-31T06:35:30;9.60;99.90
12578;DHT22;6354;51.026;8.968;2022-10-31T06:38:00;9.60;99.90
12578;DHT22;6354;51.026;8.968;2022-10-31T06:40:28;9.60;99.90
12578;DHT22;6354;51.026;8.968;2022-10-31T06:42:58;9.60;99.90
12578;DHT22;6354;51.026;8.968;2022-10-31T06:45:26;9.70;99.90
12578;DHT22;6354;51.026;8.968;2022-10-31T06:47:56;9.70;99.90
12578;DHT22;6354;51.026;8.968;2022-10-31T06:50:44;9.70;99.90
12578;DHT22;6354;51.026;8.968;2022-10-31T06:53:14;9.70;99.90
12578;DHT22;6354;51.026;8.968;2022-10-31T06:55:42;9.80;99.90
12578;DHT22;6354;51.026;8.968;2022-10-31T06:58:11;9.90;99.90
12578;DHT22;6354;51.026;8.968;2022-10-31T07:00:39;9.90;99.90
12578;DHT22;6354;51.026;8.968;2022-10-31T07:03:10;10.10;99.90
12578;DHT22;6354;51.026;8.968;2022-10-31T07:05:39;10.20;99.90
12578;DHT22;6354;51.026;8.968;2022-10-31T07:08:09;10.20;99.90
12578;DHT22;6354;51.026;8.968;2022-10-31T07:10:41;10.20;99.90
12578;DHT22;6354;51.026;8.968;2022-10-31T07:13:11;10.30;99.90
12578;DHT22;6354;51.026;8.968;2022-10-31T07:15:41;10.30;99.90
12578;DHT22;6354;51.026;8.968;2022-10-31T07:18:11;10.30;99.90
12578;DHT22;6354;51.026;8.968;2022-10-31T07:20:39;10.50;99.90
12578;DHT22;6354;51.026;8.968;2022-10-31T07:23:08;10.50;99.90
12578;DHT22;6354;51.026;8.968;2022-10-31T07:25:38;10.50;99.90
12578;DHT22;6354;51.026;8.968;2022-10-31T07:28:08;10.60;99.90
12578;DHT22;6354;51.026;8.968;2022-10-31T07:30:36;10.60;99.90
12578;DHT22;6354;51.026;8.968;2022-10-31T07:33:05;10.70;99.90
12578;DHT22;6354;51.026;8.968;2022-10-31T07:35:33;10.70;99.90
12578;DHT22;6354;51.026;8.968;2022-10-31T07:38:09;10.80;99.90
12578;DHT22;6354;51.026;8.968;2022-10-31T07:40:39;10.90;99.90
12578;DHT22;6354;51.026;8.968;2022-10-31T07:43:08;10.90;99.90
12578;DHT22;6354;51.026;8.968;2022-10-31T07:45:40;11.00;99.90
12578;DHT22;6354;51.026;8.968;2022-10-31T07:48:08;11.10;99.90
12578;DHT22;6354;51.026;8.968;2022-10-31T07:50:37;11.10;99.90
12578;DHT22;6354;51.026;8.968;2022-10-31T07:53:07;11.30;99.90
12578;DHT22;6354;51.026;8.968;2022-10-31T07:55:36;11.30;99.90
12578;DHT22;6354;51.026;8.968;2022-10-31T07:58:07;11.40;99.90
12578;DHT22;6354;51.026;8.968;2022-10-31T08:00:37;11.50;99.90
12578;DHT22;6354;51.026;8.968;2022-10-31T08:03:07;11.50;99.90
12578;DHT22;6354;51.026;8.968;2022-10-31T08:05:35;11.50;99.90
12578;DHT22;6354;51.026;8.968;2022-10-31T08:08:05;11.60;99.90
12578;DHT22;6354;51.026;8.968;2022-10-31T08:10:34;11.60;99.90
12578;DHT22;6354;51.026;8.968;2022-10-31T08:13:06;11.60;99.90
12578;DHT22;6354;51.026;8.968;2022-10-31T08:15:35;11.70;99.90
12578;DHT22;6354;51.026;8.968;2022-10-31T08:18:06;11.60;99.90
12578;DHT22;6354;51.026;8.968;2022-10-31T08:20:35;11.70;99.90
12578;DHT22;6354;51.026;8.968;2022-10-31T08:23:04;11.80;99.90
12578;DHT22;6354;51.026;8.968;2022-10-31T08:25:34;11.90;99.90
12578;DHT22;6354;51.026;8.968;2022-10-31T08:28:07;11.90;99.90
12578;DHT22;6354;51.026;8.968;2022-10-31T08:30:37;12.00;99.90
12578;DHT22;6354;51.026;8.968;2022-10-31T08:33:08;12.00;99.90
12578;DHT22;6354;51.026;8.968;2022-10-31T08:35:37;12.10;99.90
12578;DHT22;6354;51.026;8.968;2022-10-31T08:38:05;12.20;99.90
12578;DHT22;6354;51.026;8.968;2022-10-31T08:40:35;12.30;99.90
12578;DHT22;6354;51.026;8.968;2022-10-31T08:43:06;12.40;99.90
12578;DHT22;6354;51.026;8.968;2022-10-31T08:45:36;12.50;99.90
12578;DHT22;6354;51.026;8.968;2022-10-31T08:48:09;12.60;99.90
12578;DHT22;6354;51.026;8.968;2022-10-31T08:50:38;12.60;99.90
12578;DHT22;6354;51.026;8.968;2022-10-31T08:53:10;12.70;99.90
12578;DHT22;6354;51.026;8.968;2022-10-31T08:55:41;12.80;99.90
12578;DHT22;6354;51.026;8.968;2022-10-31T08:58:13;12.90;99.90
12578;DHT22;6354;51.026;8.968;2022-10-31T09:00:42;12.90;99.90
12578;DHT22;6354;51.026;8.968;2022-10-31T09:03:12;13.00;99.90
12578;DHT22;6354;51.026;8.968;2022-10-31T09:05:41;13.10;99.90
12578;DHT22;6354;51.026;8.968;2022-10-31T09:08:09;13.10;99.90
12578;DHT22;6354;51.026;8.968;2022-10-31T09:10:42;13.20;99.90
12578;DHT22;6354;51.026;8.968;2022-10-31T09:13:14;13.30;99.90
12578;DHT22;6354;51.026;8.968;2022-10-31T09:15:45;13.30;99.90
12578;DHT22;6354;51.026;8.968;2022-10-31T09:18:15;13.40;99.90
12578;DHT22;6354;51.026;8.968;2022-10-31T09:20:45;13.50;99.90
12578;DHT22;6354;51.026;8.968;2022-10-31T09:23:15;13.60;99.90
12578;DHT22;6354;51.026;8.968;2022-10-31T09:25:43;13.60;99.90
12578;DHT22;6354;51.026;8.968;2022-10-31T09:28:19;13.70;99.90
12578;DHT22;6354;51.026;8.968;2022-10-31T09:30:48;13.80;99.90
12578;DHT22;6354;51.026;8.968;2022-10-31T09:33:16;13.80;99.90
12578;DHT22;6354;51.026;8.968;2022-10-31T09:35:45;13.90;99.90
12578;DHT22;6354;51.026;8.968;2022-10-31T09:38:14;14.00;99.90
12578;DHT22;6354;51.026;8.968;2022-10-31T09:40:44;14.10;99.90
12578;DHT22;6354;51.026;8.968;2022-10-31T09:43:18;14.10;99.90
12578;DHT22;6354;51.026;8.968;2022-10-31T09:45:54;14.20;99.90
12578;DHT22;6354;51.026;8.968;2022-10-31T09:51:24;14.30;99.90
12578;DHT22;6354;51.026;8.968;2022-10-31T09:53:57;14.40;99.90
12578;DHT22;6354;51.026;8.968;2022-10-31T09:56:28;14.50;99.90
12578;DHT22;6354;51.026;8.968;2022-10-31T09:58:59;14.50;99.90
12578;DHT22;6354;51.026;8.968;2022-10-31T10:01:38;14.60;99.90
12578;DHT22;6354;51.026;8.968;2022-10-31T10:04:19;14.70;99.90
12578;DHT22;6354;51.026;8.968;2022-10-31T10:06:52;14.70;99.90
12578;DHT22;6354;51.026;8.968;2022-10-31T10:09:24;14.80;99.90
12578;DHT22;6354;51.026;8.968;2022-10-31T10:12:02;14.80;99.90
12578;DHT22;6354;51.026;8.968;2022-10-31T10:14:55;14.90;99.90
12578;DHT22;6354;51.026;8.968;2022-10-31T10:17:37;14.90;99.90
12578;DHT22;6354;51.026;8.968;2022-10-31T10:20:25;15.00;99.90
12578;DHT22;6354;51.026;8.968;2022-10-31T10:23:29;15.10;99.90
12578;DHT22;6354;51.026;8.968;2022-10-31T10:26:05;15.20;99.90
12578;DHT22;6354;51.026;8.968;2022-10-31T10:28:39;15.20;99.90
12578;DHT22;6354;51.026;8.968;2022-10-31T10:31:14;15.30;99.90
12578;DHT22;6354;51.026;8.968;2022-10-31T10:33:46;15.40;99.90
12578;DHT22;6354;51.026;8.968;2022-10-31T10:36:19;15.50;99.90
12578;DHT22;6354;51.026;8.968;2022-10-31T10:38:52;15.50;99.90
12578;DHT22;6354;51.026;8.968;2022-10-31T10:41:23;15.60;99.90
12578;DHT22;6354;51.026;8.968;2022-10-31T10:43:57;15.70;99.90
12578;DHT22;6354;51.026;8.968;2022-10-31T10:46:32;15.70;99.90
12578;DHT22;6354;51.026;8.968;2022-10-31T10:49:30;15.80;99.90
12578;DHT22;6354;51.026;8.968;2022-10-31T10:52:05;15.80;99.90
12578;DHT22;6354;51.026;8.968;2022-10-31T10:55:02;15.80;99.90
12578;DHT22;6354;51.026;8.968;2022-10-31T10:57:44;15.90;99.90
12578;DHT22;6354;51.026;8.968;2022-10-31T11:00:19;15.90;99.90
12578;DHT22;6354;51.026;8.968;2022-10-31T11:02:49;16.00;99.90
12578;DHT22;6354;51.026;8.968;2022-10-31T11:05:29;16.00;99.90
12578;DHT22;6354;51.026;8.968;2022-10-31T11:07:58;16.00;99.90
12578;DHT22;6354;51.026;8.968;2022-10-31T11:10:26;16.10;99.90
12578;DHT22;6354;51.026;8.968;2022-10-31T11:13:01;16.10;99.90
12578;DHT22;6354;51.026;8.968;2022-10-31T11:15:33;16.10;99.90
12578;DHT22;6354;51.026;8.968;2022-10-31T11:18:04;16.10;99.90
12578;DHT22;6354;51.026;8.968;2022-10-31T11:20:34;16.20;99.90
12578;DHT22;6354;51.026;8.968;2022-10-31T11:23:17;16.30;99.90
12578;DHT22;6354;51.026;8.968;2022-10-31T11:25:50;16.30;99.90
12578;DHT22;6354;51.026;8.968;2022-10-31T11:28:19;16.30;99.90
12578;DHT22;6354;51.026;8.968;2022-10-31T11:30:49;16.40;99.90
12578;DHT22;6354;51.026;8.968;2022-10-31T11:33:29;16.40;99.90
12578;DHT22;6354;51.026;8.968;2022-10-31T11:36:00;16.50;99.90
12578;DHT22;6354;51.026;8.968;2022-10-31T11:38:34;16.50;99.90
12578;DHT22;6354;51.026;8.968;2022-10-31T11:41:09;16.60;99.90
12578;DHT22;6354;51.026;8.968;2022-10-31T11:43:46;16.70;99.90
12578;DHT22;6354;51.026;8.968;2022-10-31T11:46:19;16.80;99.90
12578;DHT22;6354;51.026;8.968;2022-10-31T11:48:51;16.90;99.90
12578;DHT22;6354;51.026;8.968;2022-10-31T11:51:22;16.90;99.90
12578;DHT22;6354;51.026;8.968;2022-10-31T11:53:52;17.00;99.90
12578;DHT22;6354;51.026;8.968;2022-10-31T11:56:27;17.00;99.90
12578;DHT22;6354;51.026;8.968;2022-10-31T11:59:12;17.00;99.90
12578;DHT22;6354;51.026;8.968;2022-10-31T12:01:47;17.00;99.90
12578;DHT22;6354;51.026;8.968;2022-10-31T12:04:17;17.10;99.90
12578;DHT22;6354;51.026;8.968;2022-10-31T12:06:46;17.10;99.90
12578;DHT22;6354;51.026;8.968;2022-10-31T12:09:20;17.20;99.90
12578;DHT22;6354;51.026;8.968;2022-10-31T12:12:10;17.20;99.90
12578;DHT22;6354;51.026;8.968;2022-10-31T12:14:49;17.20;99.90
12578;DHT22;6354;51.026;8.968;2022-10-31T12:17:22;17.20;99.90
12578;DHT22;6354;51.026;8.968;2022-10-31T12:20:00;17.30;99.90
12578;DHT22;6354;51.026;8.968;2022-10-31T12:22:39;17.30;99.90
12578;DHT22;6354;51.026;8.968;2022-10-31T12:25:33;17.30;99.90
12578;DHT22;6354;51.026;8.968;2022-10-31T12:28:33;17.40;99.90
12578;DHT22;6354;51.026;8.968;2022-10-31T12:31:22;17.40;99.90
12578;DHT22;6354;51.026;8.968;2022-10-31T12:33:59;17.50;99.90
12578;DHT22;6354;51.026;8.968;2022-10-31T12:36:46;17.50;99.90
12578;DHT22;6354;51.026;8.968;2022-10-31T12:39:33;17.50;99.90
12578;DHT22;6354;51.026;8.968;2022-10-31T12:42:21;17.50;99.90
12578;DHT22;6354;51.026;8.968;2022-10-31T12:45:14;17.60;99.90
12578;DHT22;6354;51.026;8.968;2022-10-31T12:48:18;17.60;99.90
12578;DHT22;6354;51.026;8.968;2022-10-31T12:51:00;17.60;99.90
12578;DHT22;6354;51.026;8.968;2022-10-31T12:53:42;17.60;99.90
12578;DHT22;6354;51.026;8.968;2022-10-31T12:56:22;17.70;99.90
12578;DHT22;6354;51.026;8.968;2022-10-31T12:58:56;17.70;99.90
12578;DHT22;6354;51.026;8.968;2022-10-31T13:01:32;17.80;99.90
12578;DHT22;6354;51.026;8.968;2022-10-31T13:04:05;17.80;99.90
12578;DHT22;6354;51.026;8.968;2022-10-31T13:06:40;17.80;99.90
12578;DHT22;6354;51.026;8.968;2022-10-31T13:09:17;17.80;99.90
12578;DHT22;6354;51.026;8.968;2022-10-31T13:11:48;17.70;99.90
12578;DHT22;6354;51.026;8.968;2022-10-31T13:14:25;17.70;99.90
12578;DHT22;6354;51.026;8.968;2022-10-31T13:16:55;17.60;99.90
12578;DHT22;6354;51.026;8.968;2022-10-31T13:19:27;17.70;99.90
12578;DHT22;6354;51.026;8.968;2022-10-31T13:22:00;17.70;99.90
12578;DHT22;6354;51.026;8.968;2022-10-31T13:24:35;17.60;99.90
12578;DHT22;6354;51.026;8.968;2022-10-31T13:27:13;17.60;99.90
12578;DHT22;6354;51.026;8.968;2022-10-31T13:29:52;17.60;99.90
12578;DHT22;6354;51.026;8.968;2022-10-31T13:32:22;17.60;99.90
12578;DHT22;6354;51.026;8.968;2022-10-31T13:34:53;17.60;99.90
12578;DHT22;6354;51.026;8.968;2022-10-31T13:37:36;17.60;99.90
12578;DHT22;6354;51.026;8.968;2022-10-31T13:40:14;17.60;99.90
12578;DHT22;6354;51.026;8.968;2022-10-31T13:42:54;17.60;99.90
12578;DHT22;6354;51.026;8.968;2022-10-31T13:45:24;17.60;99.90
12578;DHT22;6354;51.026;8.968;2022-10-31T13:47:58;17.60;99.90
12578;DHT22;6354;51.026;8.968;2022-10-31T13:50:28;17.60;99.90
12578;DHT22;6354;51.026;8.968;2022-10-31T13:53:14;17.60;99.90
12578;DHT22;6354;51.026;8.968;2022-10-31T13:55:49;17.60;99.90
12578;DHT22;6354;51.026;8.968;2022-10-31T13:58:24;17.60;99.90
12578;DHT22;6354;51.026;8.968;2022-10-31T14:03:45;17.50;99.90
12578;DHT22;6354;51.026;8.968;2022-10-31T14:06:37;17.60;99.90
12578;DHT22;6354;51.026;8.968;2022-10-31T14:09:20;17.50;99.90
12578;DHT22;6354;51.026;8.968;2022-10-31T14:11:51;17.50;99.90
12578;DHT22;6354;51.026;8.968;2022-10-31T14:14:21;17.50;99.90
12578;DHT22;6354;51.026;8.968;2022-10-31T14:16:55;17.50;99.90
12578;DHT22;6354;51.026;8.968;2022-10-31T14:19:25;17.50;99.90
12578;DHT22;6354;51.026;8.968;2022-10-31T14:21:54;17.40;99.90
12578;DHT22;6354;51.026;8.968;2022-10-31T14:24:36;17.40;99.90
12578;DHT22;6354;51.026;8.968;2022-10-31T14:27:44;17.40;99.90
12578;DHT22;6354;51.026;8.968;2022-10-31T14:30:17;17.40;99.90
12578;DHT22;6354;51.026;8.968;2022-10-31T14:32:50;17.30;99.90
12578;DHT22;6354;51.026;8.968;2022-10-31T14:35:21;17.30;99.90
12578;DHT22;6354;51.026;8.968;2022-10-31T14:38:11;17.30;99.90
12578;DHT22;6354;51.026;8.968;2022-10-31T14:40:52;17.30;99.90
12578;DHT22;6354;51.026;8.968;2022-10-31T14:43:41;17.20;99.90
12578;DHT22;6354;51.026;8.968;2022-10-31T14:46:18;17.20;99.90
12578;DHT22;6354;51.026;8.968;2022-10-31T14:49:04;17.20;99.90
12578;DHT22;6354;51.026;8.968;2022-10-31T14:51:40;17.20;99.90
12578;DHT22;6354;51.026;8.968;2022-10-31T14:54:13;17.20;99.90
12578;DHT22;6354;51.026;8.968;2022-10-31T14:56:47;17.20;99.90
12578;DHT22;6354;51.026;8.968;2022-10-31T14:59:21;17.20;99.90
12578;DHT22;6354;51.026;8.968;2022-10-31T15:01:56;17.10;99.90
12578;DHT22;6354;51.026;8.968;2022-10-31T15:04:27;17.10;99.90
12578;DHT22;6354;51.026;8.968;2022-10-31T15:07:02;17.10;99.90
12578;DHT22;6354;51.026;8.968;2022-10-31T15:09:33;17.10;99.90
12578;DHT22;6354;51.026;8.968;2022-10-31T15:12:22;17.00;99.90
12578;DHT22;6354;51.026;8.968;2022-10-31T15:14:52;17.10;99.90
12578;DHT22;6354;51.026;8.968;2022-10-31T15:17:21;17.00;99.90
12578;DHT22;6354;51.026;8.968;2022-10-31T15:19:50;17.00;99.90
12578;DHT22;6354;51.026;8.968;2022-10-31T15:22:20;17.00;99.90
12578;DHT22;6354;51.026;8.968;2022-10-31T15:24:50;16.90;99.90
12578;DHT22;6354;51.026;8.968;2022-10-31T15:27:23;16.90;99.90
12578;DHT22;6354;51.026;8.968;2022-10-31T15:29:54;16.80;99.90
12578;DHT22;6354;51.026;8.968;2022-10-31T15:32:24;16.80;99.90
12578;DHT22;6354;51.026;8.968;2022-10-31T15:34:53;16.70;99.90
12578;DHT22;6354;51.026;8.968;2022-10-31T15:37:23;16.70;99.90
12578;DHT22;6354;51.026;8.968;2022-10-31T15:39:52;16.60;99.90
12578;DHT22;6354;51.026;8.968;2022-10-31T15:42:22;16.60;99.90
12578;DHT22;6354;51.026;8.968;2022-10-31T15:44:59;16.60;99.90
12578;DHT22;6354;51.026;8.968;2022-10-31T15:47:29;16.50;99.90
12578;DHT22;6354;51.026;8.968;2022-10-31T15:49:59;16.50;99.90
12578;DHT22;6354;51.026;8.968;2022-10-31T15:52:31;16.50;99.90
12578;DHT22;6354;51.026;8.968;2022-10-31T15:55:01;16.50;99.90
12578;DHT22;6354;51.026;8.968;2022-10-31T15:57:31;16.40;99.90
12578;DHT22;6354;51.026;8.968;2022-10-31T16:00:02;16.30;99.90
12578;DHT22;6354;51.026;8.968;2022-10-31T16:02:30;16.30;99.90
12578;DHT22;6354;51.026;8.968;2022-10-31T16:05:00;16.30;99.90
12578;DHT22;6354;51.026;8.968;2022-10-31T16:07:29;16.30;99.90
12578;DHT22;6354;51.026;8.968;2022-10-31T16:09:59;16.20;99.90
12578;DHT22;6354;51.026;8.968;2022-10-31T16:12:34;16.20;99.90
12578;DHT22;6354;51.026;8.968;2022-10-31T16:15:05;16.20;99.90
12578;DHT22;6354;51.026;8.968;2022-10-31T16:17:42;16.20;99.90
12578;DHT22;6354;51.026;8.968;2022-10-31T16:20:18;16.10;99.90
12578;DHT22;6354;51.026;8.968;2022-10-31T16:22:49;16.10;99.90
12578;DHT22;6354;51.026;8.968;2022-10-31T16:25:27;16.00;99.90
12578;DHT22;6354;51.026;8.968;2022-10-31T16:28:04;16.00;99.90
12578;DHT22;6354;51.026;8.968;2022-10-31T16:30:38;16.00;99.90